sensor_id;sensor_type;location;lat;lon;timestamp;P1;durP1;ratioP1;P2;durP2;ratioP2
66886;SDS011;67239;51.680;5.976;2023-11-21T00:00:36;29.25;;;15.18;;
66886;SDS011;67239;51.680;5.976;2023-11-21T00:03:03;24.33;;;15.65;;
66886;SDS011;67239;51.680;5.976;2023-11-21T00:05:31;29.30;;;17.02;;
66886;SDS011;67239;51.680;5.976;2023-11-21T00:07:58;27.42;;;16.67;;
66886;SDS011;67239;51.680;5.976;2023-11-21T00:10:25;27.85;;;15.70;;
66886;SDS011;67239;51.680;5.976;2023-11-21T00:12:53;24.02;;;14.27;;
66886;SDS011;67239;51.680;5.976;2023-11-21T00:15:21;23.90;;;14.40;;
66886;SDS011;67239;51.680;5.976;2023-11-21T00:17:48;24.90;;;15.60;;
66886;SDS011;67239;51.680;5.976;2023-11-21T00:20:16;27.75;;;16.13;;
66886;SDS011;67239;51.680;5.976;2023-11-21T00:22:43;26.85;;;14.95;;
66886;SDS011;67239;51.680;5.976;2023-11-21T00:25:10;31.88;;;15.82;;
66886;SDS011;67239;51.680;5.976;2023-11-21T00:27:41;26.00;;;15.30;;
66886;SDS011;67239;51.680;5.976;2023-11-21T00:30:09;27.38;;;15.00;;
66886;SDS011;67239;51.680;5.976;2023-11-21T00:32:37;30.35;;;16.42;;
66886;SDS011;67239;51.680;5.976;2023-11-21T00:35:04;32.10;;;15.48;;
66886;SDS011;67239;51.680;5.976;2023-11-21T00:37:32;28.20;;;15.25;;
66886;SDS011;67239;51.680;5.976;2023-11-21T00:40:00;31.77;;;16.33;;
66886;SDS011;67239;51.680;5.976;2023-11-21T00:42:31;33.97;;;15.10;;
66886;SDS011;67239;51.680;5.976;2023-11-21T00:45:01;28.92;;;16.48;;
66886;SDS011;67239;51.680;5.976;2023-11-21T00:47:29;28.45;;;15.27;;
66886;SDS011;67239;51.680;5.976;2023-11-21T00:49:56;32.55;;;17.20;;
66886;SDS011;67239;51.680;5.976;2023-11-21T00:52:23;28.13;;;16.42;;
66886;SDS011;67239;51.680;5.976;2023-11-21T00:54:51;35.50;;;15.90;;
66886;SDS011;67239;51.680;5.976;2023-11-21T00:57:18;27.90;;;16.17;;
66886;SDS011;67239;51.680;5.976;2023-11-21T00:59:45;32.35;;;17.02;;
66886;SDS011;67239;51.680;5.976;2023-11-21T01:02:12;31.70;;;17.08;;
66886;SDS011;67239;51.680;5.976;2023-11-21T01:04:39;33.55;;;16.80;;
66886;SDS011;67239;51.680;5.976;2023-11-21T01:07:06;29.08;;;16.10;;
66886;SDS011;67239;51.680;5.976;2023-11-21T01:09:33;32.95;;;18.10;;
66886;SDS011;67239;51.680;5.976;2023-11-21T01:12:00;29.60;;;17.02;;
66886;SDS011;67239;51.680;5.976;2023-11-21T01:14:28;32.65;;;17.45;;
66886;SDS011;67239;51.680;5.976;2023-11-21T01:16:56;35.97;;;18.05;;
66886;SDS011;67239;51.680;5.976;2023-11-21T01:19:24;35.53;;;17.92;;
66886;SDS011;67239;51.680;5.976;2023-11-21T01:21:51;36.17;;;17.88;;
66886;SDS011;67239;51.680;5.976;2023-11-21T01:24:19;38.45;;;18.30;;
66886;SDS011;67239;51.680;5.976;2023-11-21T01:26:46;37.60;;;18.30;;
66886;SDS011;67239;51.680;5.976;2023-11-21T01:29:13;32.28;;;17.30;;
66886;SDS011;67239;51.680;5.976;2023-11-21T01:31:41;37.20;;;19.40;;
66886;SDS011;67239;51.680;5.976;2023-11-21T01:34:09;38.08;;;19.10;;
66886;SDS011;67239;51.680;5.976;2023-11-21T01:36:36;32.35;;;18.00;;
66886;SDS011;67239;51.680;5.976;2023-11-21T01:39:03;38.20;;;20.05;;
66886;SDS011;67239;51.680;5.976;2023-11-21T01:41:35;35.58;;;19.15;;
66886;SDS011;67239;51.680;5.976;2023-11-21T01:44:02;41.20;;;21.05;;
66886;SDS011;67239;51.680;5.976;2023-11-21T01:46:29;39.10;;;20.23;;
66886;SDS011;67239;51.680;5.976;2023-11-21T01:48:57;40.17;;;19.85;;
66886;SDS011;67239;51.680;5.976;2023-11-21T01:51:24;44.78;;;21.10;;
66886;SDS011;67239;51.680;5.976;2023-11-21T01:53:53;56.90;;;22.75;;
66886;SDS011;67239;51.680;5.976;2023-11-21T01:56:20;50.00;;;22.33;;
66886;SDS011;67239;51.680;5.976;2023-11-21T01:58:48;47.63;;;21.73;;
66886;SDS011;67239;51.680;5.976;2023-11-21T02:01:15;47.15;;;22.35;;
66886;SDS011;67239;51.680;5.976;2023-11-21T02:03:42;44.90;;;21.65;;
66886;SDS011;67239;51.680;5.976;2023-11-21T02:06:09;48.10;;;22.73;;
66886;SDS011;67239;51.680;5.976;2023-11-21T02:08:36;50.60;;;24.00;;
66886;SDS011;67239;51.680;5.976;2023-11-21T02:11:04;54.00;;;24.23;;
66886;SDS011;67239;51.680;5.976;2023-11-21T02:13:32;55.33;;;24.65;;
66886;SDS011;67239;51.680;5.976;2023-11-21T02:16:00;64.57;;;24.40;;
66886;SDS011;67239;51.680;5.976;2023-11-21T02:18:28;56.80;;;23.63;;
66886;SDS011;67239;51.680;5.976;2023-11-21T02:20:56;68.22;;;25.98;;
66886;SDS011;67239;51.680;5.976;2023-11-21T02:23:23;67.30;;;26.33;;
66886;SDS011;67239;51.680;5.976;2023-11-21T02:25:55;63.63;;;25.88;;
66886;SDS011;67239;51.680;5.976;2023-11-21T02:28:23;61.58;;;25.50;;
66886;SDS011;67239;51.680;5.976;2023-11-21T02:30:53;71.65;;;27.83;;
66886;SDS011;67239;51.680;5.976;2023-11-21T02:33:24;66.28;;;26.10;;
66886;SDS011;67239;51.680;5.976;2023-11-21T02:35:52;59.97;;;25.35;;
66886;SDS011;67239;51.680;5.976;2023-11-21T02:38:21;72.60;;;28.05;;
66886;SDS011;67239;51.680;5.976;2023-11-21T02:40:49;67.93;;;24.88;;
66886;SDS011;67239;51.680;5.976;2023-11-21T02:43:16;84.10;;;30.42;;
66886;SDS011;67239;51.680;5.976;2023-11-21T02:45:44;85.40;;;29.13;;
66886;SDS011;67239;51.680;5.976;2023-11-21T02:48:12;280.00;;;39.40;;
66886;SDS011;67239;51.680;5.976;2023-11-21T02:50:39;73.82;;;27.92;;
66886;SDS011;67239;51.680;5.976;2023-11-21T02:53:06;74.03;;;29.25;;
66886;SDS011;67239;51.680;5.976;2023-11-21T02:55:33;188.80;;;33.95;;
66886;SDS011;67239;51.680;5.976;2023-11-21T02:58:01;56.55;;;25.08;;
66886;SDS011;67239;51.680;5.976;2023-11-21T03:00:30;187.70;;;33.22;;
66886;SDS011;67239;51.680;5.976;2023-11-21T03:02:57;120.55;;;30.52;;
66886;SDS011;67239;51.680;5.976;2023-11-21T03:05:25;401.17;;;46.10;;
66886;SDS011;67239;51.680;5.976;2023-11-21T03:07:52;80.63;;;29.23;;
66886;SDS011;67239;51.680;5.976;2023-11-21T03:10:19;78.38;;;28.40;;
66886;SDS011;67239;51.680;5.976;2023-11-21T03:12:46;143.43;;;30.45;;
66886;SDS011;67239;51.680;5.976;2023-11-21T03:15:14;135.73;;;30.60;;
66886;SDS011;67239;51.680;5.976;2023-11-21T03:17:42;95.57;;;28.45;;
66886;SDS011;67239;51.680;5.976;2023-11-21T03:20:10;134.23;;;29.05;;
66886;SDS011;67239;51.680;5.976;2023-11-21T03:22:38;411.80;;;48.40;;
66886;SDS011;67239;51.680;5.976;2023-11-21T03:25:06;356.33;;;40.80;;
66886;SDS011;67239;51.680;5.976;2023-11-21T03:27:37;220.05;;;37.88;;
66886;SDS011;67239;51.680;5.976;2023-11-21T03:30:07;157.45;;;31.40;;
66886;SDS011;67239;51.680;5.976;2023-11-21T03:32:36;101.43;;;26.25;;
66886;SDS011;67239;51.680;5.976;2023-11-21T03:35:03;84.75;;;28.58;;
66886;SDS011;67239;51.680;5.976;2023-11-21T03:37:32;84.40;;;25.95;;
66886;SDS011;67239;51.680;5.976;2023-11-21T03:40:00;103.30;;;28.17;;
66886;SDS011;67239;51.680;5.976;2023-11-21T03:42:27;67.93;;;27.20;;
66886;SDS011;67239;51.680;5.976;2023-11-21T03:44:54;53.25;;;26.08;;
66886;SDS011;67239;51.680;5.976;2023-11-21T03:47:21;88.15;;;27.27;;
66886;SDS011;67239;51.680;5.976;2023-11-21T03:49:49;102.68;;;29.20;;
66886;SDS011;67239;51.680;5.976;2023-11-21T03:52:16;59.92;;;23.67;;
66886;SDS011;67239;51.680;5.976;2023-11-21T03:54:44;53.58;;;23.55;;
66886;SDS011;67239;51.680;5.976;2023-11-21T03:57:11;91.13;;;28.73;;
66886;SDS011;67239;51.680;5.976;2023-11-21T03:59:42;74.80;;;27.48;;
66886;SDS011;67239;51.680;5.976;2023-11-21T04:02:10;73.28;;;28.00;;
66886;SDS011;67239;51.680;5.976;2023-11-21T04:04:37;89.72;;;28.02;;
66886;SDS011;67239;51.680;5.976;2023-11-21T04:07:05;85.80;;;26.63;;
66886;SDS011;67239;51.680;5.976;2023-11-21T04:09:32;97.15;;;28.08;;
66886;SDS011;67239;51.680;5.976;2023-11-21T04:11:59;89.35;;;26.23;;
66886;SDS011;67239;51.680;5.976;2023-11-21T04:14:26;88.80;;;26.30;;
66886;SDS011;67239;51.680;5.976;2023-11-21T04:16:54;218.75;;;34.22;;
66886;SDS011;67239;51.680;5.976;2023-11-21T04:19:22;76.75;;;26.42;;
66886;SDS011;67239;51.680;5.976;2023-11-21T04:21:49;86.45;;;28.05;;
66886;SDS011;67239;51.680;5.976;2023-11-21T04:24:16;89.43;;;29.55;;
66886;SDS011;67239;51.680;5.976;2023-11-21T04:26:44;69.25;;;26.35;;
66886;SDS011;67239;51.680;5.976;2023-11-21T04:29:11;67.25;;;24.40;;
66886;SDS011;67239;51.680;5.976;2023-11-21T04:31:39;54.63;;;23.23;;
66886;SDS011;67239;51.680;5.976;2023-11-21T04:34:06;55.53;;;24.40;;
66886;SDS011;67239;51.680;5.976;2023-11-21T04:36:33;183.68;;;31.75;;
66886;SDS011;67239;51.680;5.976;2023-11-21T04:39:01;102.40;;;27.42;;
66886;SDS011;67239;51.680;5.976;2023-11-21T04:41:29;107.13;;;29.30;;
66886;SDS011;67239;51.680;5.976;2023-11-21T04:43:58;108.15;;;27.85;;
66886;SDS011;67239;51.680;5.976;2023-11-21T04:46:27;226.85;;;36.70;;
66886;SDS011;67239;51.680;5.976;2023-11-21T04:48:55;104.57;;;29.80;;
66886;SDS011;67239;51.680;5.976;2023-11-21T04:51:22;79.45;;;28.40;;
66886;SDS011;67239;51.680;5.976;2023-11-21T04:53:49;99.30;;;29.80;;
66886;SDS011;67239;51.680;5.976;2023-11-21T04:56:16;97.25;;;28.42;;
66886;SDS011;67239;51.680;5.976;2023-11-21T04:58:43;84.57;;;27.77;;
66886;SDS011;67239;51.680;5.976;2023-11-21T05:01:10;65.93;;;26.35;;
66886;SDS011;67239;51.680;5.976;2023-11-21T05:03:38;119.57;;;31.58;;
66886;SDS011;67239;51.680;5.976;2023-11-21T05:06:06;125.85;;;32.15;;
66886;SDS011;67239;51.680;5.976;2023-11-21T05:08:36;69.80;;;27.58;;
66886;SDS011;67239;51.680;5.976;2023-11-21T05:11:03;91.45;;;28.20;;
66886;SDS011;67239;51.680;5.976;2023-11-21T05:13:31;93.45;;;25.90;;
66886;SDS011;67239;51.680;5.976;2023-11-21T05:16:00;81.15;;;29.33;;
66886;SDS011;67239;51.680;5.976;2023-11-21T05:18:30;77.57;;;24.38;;
66886;SDS011;67239;51.680;5.976;2023-11-21T05:20:57;98.57;;;28.40;;
66886;SDS011;67239;51.680;5.976;2023-11-21T05:23:25;55.30;;;24.92;;
66886;SDS011;67239;51.680;5.976;2023-11-21T05:25:52;62.78;;;24.73;;
66886;SDS011;67239;51.680;5.976;2023-11-21T05:28:19;71.25;;;27.70;;
66886;SDS011;67239;51.680;5.976;2023-11-21T05:32:24;69.28;;;25.88;;
66886;SDS011;67239;51.680;5.976;2023-11-21T05:34:52;48.28;;;24.25;;
66886;SDS011;67239;51.680;5.976;2023-11-21T05:37:19;56.03;;;25.27;;
66886;SDS011;67239;51.680;5.976;2023-11-21T05:39:46;41.45;;;22.20;;
66886;SDS011;67239;51.680;5.976;2023-11-21T05:42:13;49.13;;;25.13;;
66886;SDS011;67239;51.680;5.976;2023-11-21T05:44:41;43.72;;;23.77;;
66886;SDS011;67239;51.680;5.976;2023-11-21T05:47:10;41.13;;;21.75;;
66886;SDS011;67239;51.680;5.976;2023-11-21T05:49:37;43.80;;;23.73;;
66886;SDS011;67239;51.680;5.976;2023-11-21T05:52:04;65.75;;;26.55;;
66886;SDS011;67239;51.680;5.976;2023-11-21T05:54:32;69.50;;;27.23;;
66886;SDS011;67239;51.680;5.976;2023-11-21T05:56:59;48.00;;;25.25;;
66886;SDS011;67239;51.680;5.976;2023-11-21T05:59:26;48.78;;;23.90;;
66886;SDS011;67239;51.680;5.976;2023-11-21T06:01:53;41.70;;;24.23;;
66886;SDS011;67239;51.680;5.976;2023-11-21T06:04:20;39.60;;;23.35;;
66886;SDS011;67239;51.680;5.976;2023-11-21T06:06:51;45.22;;;23.63;;
66886;SDS011;67239;51.680;5.976;2023-11-21T06:09:19;39.80;;;22.50;;
66886;SDS011;67239;51.680;5.976;2023-11-21T06:11:47;38.58;;;23.30;;
66886;SDS011;67239;51.680;5.976;2023-11-21T06:14:14;42.63;;;23.38;;
66886;SDS011;67239;51.680;5.976;2023-11-21T06:16:44;38.28;;;23.13;;
66886;SDS011;67239;51.680;5.976;2023-11-21T06:19:12;33.22;;;22.20;;
66886;SDS011;67239;51.680;5.976;2023-11-21T06:21:39;37.03;;;21.75;;
66886;SDS011;67239;51.680;5.976;2023-11-21T06:24:06;39.33;;;22.73;;
66886;SDS011;67239;51.680;5.976;2023-11-21T06:26:34;42.33;;;23.27;;
66886;SDS011;67239;51.680;5.976;2023-11-21T06:29:01;41.53;;;24.05;;
66886;SDS011;67239;51.680;5.976;2023-11-21T06:31:29;37.53;;;21.80;;
66886;SDS011;67239;51.680;5.976;2023-11-21T06:33:57;37.75;;;22.20;;
66886;SDS011;67239;51.680;5.976;2023-11-21T06:36:26;41.00;;;22.73;;
66886;SDS011;67239;51.680;5.976;2023-11-21T06:38:53;37.90;;;23.00;;
66886;SDS011;67239;51.680;5.976;2023-11-21T06:41:23;34.20;;;20.55;;
66886;SDS011;67239;51.680;5.976;2023-11-21T06:43:50;39.90;;;21.80;;
66886;SDS011;67239;51.680;5.976;2023-11-21T06:46:17;36.88;;;22.85;;
66886;SDS011;67239;51.680;5.976;2023-11-21T06:48:46;40.60;;;23.20;;
66886;SDS011;67239;51.680;5.976;2023-11-21T06:51:15;39.28;;;23.40;;
66886;SDS011;67239;51.680;5.976;2023-11-21T06:53:43;37.65;;;23.25;;
66886;SDS011;67239;51.680;5.976;2023-11-21T06:56:19;40.38;;;24.10;;
66886;SDS011;67239;51.680;5.976;2023-11-21T06:58:46;40.13;;;22.58;;
66886;SDS011;67239;51.680;5.976;2023-11-21T07:01:14;43.47;;;24.52;;
66886;SDS011;67239;51.680;5.976;2023-11-21T07:03:41;40.80;;;25.75;;
66886;SDS011;67239;51.680;5.976;2023-11-21T07:06:11;36.47;;;22.55;;
66886;SDS011;67239;51.680;5.976;2023-11-21T07:08:38;32.80;;;20.73;;
66886;SDS011;67239;51.680;5.976;2023-11-21T07:11:05;32.70;;;20.90;;
66886;SDS011;67239;51.680;5.976;2023-11-21T07:13:34;32.90;;;20.83;;
66886;SDS011;67239;51.680;5.976;2023-11-21T07:16:01;28.10;;;19.48;;
66886;SDS011;67239;51.680;5.976;2023-11-21T07:18:28;32.60;;;20.52;;
66886;SDS011;67239;51.680;5.976;2023-11-21T07:20:58;37.15;;;22.10;;
66886;SDS011;67239;51.680;5.976;2023-11-21T07:23:25;34.42;;;20.80;;
66886;SDS011;67239;51.680;5.976;2023-11-21T07:25:54;35.40;;;21.17;;
66886;SDS011;67239;51.680;5.976;2023-11-21T07:28:21;33.85;;;20.63;;
66886;SDS011;67239;51.680;5.976;2023-11-21T07:30:50;31.65;;;20.63;;
66886;SDS011;67239;51.680;5.976;2023-11-21T07:33:17;36.00;;;22.42;;
66886;SDS011;67239;51.680;5.976;2023-11-21T07:35:44;33.28;;;20.80;;
66886;SDS011;67239;51.680;5.976;2023-11-21T07:38:11;32.83;;;21.30;;
66886;SDS011;67239;51.680;5.976;2023-11-21T07:40:38;38.83;;;22.40;;
66886;SDS011;67239;51.680;5.976;2023-11-21T07:43:10;33.92;;;22.20;;
66886;SDS011;67239;51.680;5.976;2023-11-21T07:45:37;32.58;;;20.20;;
66886;SDS011;67239;51.680;5.976;2023-11-21T07:48:04;32.08;;;21.52;;
66886;SDS011;67239;51.680;5.976;2023-11-21T07:50:33;34.28;;;21.63;;
66886;SDS011;67239;51.680;5.976;2023-11-21T07:53:00;36.90;;;21.20;;
66886;SDS011;67239;51.680;5.976;2023-11-21T07:55:27;31.77;;;20.90;;
66886;SDS011;67239;51.680;5.976;2023-11-21T07:57:59;33.97;;;21.58;;
66886;SDS011;67239;51.680;5.976;2023-11-21T08:00:26;33.60;;;20.20;;
66886;SDS011;67239;51.680;5.976;2023-11-21T08:02:57;38.03;;;23.05;;
66886;SDS011;67239;51.680;5.976;2023-11-21T08:05:25;145.38;;;86.90;;
66886;SDS011;67239;51.680;5.976;2023-11-21T08:08:05;41.78;;;28.35;;
66886;SDS011;67239;51.680;5.976;2023-11-21T08:10:33;36.03;;;24.90;;
66886;SDS011;67239;51.680;5.976;2023-11-21T08:13:00;39.47;;;24.77;;
66886;SDS011;67239;51.680;5.976;2023-11-21T08:15:28;70.00;;;41.95;;
66886;SDS011;67239;51.680;5.976;2023-11-21T08:17:58;49.63;;;33.75;;
66886;SDS011;67239;51.680;5.976;2023-11-21T08:20:25;43.45;;;24.17;;
66886;SDS011;67239;51.680;5.976;2023-11-21T08:22:52;46.00;;;29.30;;
66886;SDS011;67239;51.680;5.976;2023-11-21T08:25:20;39.20;;;27.02;;
66886;SDS011;67239;51.680;5.976;2023-11-21T08:27:47;39.63;;;27.15;;
66886;SDS011;67239;51.680;5.976;2023-11-21T08:30:14;34.42;;;22.33;;
66886;SDS011;67239;51.680;5.976;2023-11-21T08:32:43;55.70;;;37.60;;
66886;SDS011;67239;51.680;5.976;2023-11-21T08:35:10;75.63;;;51.53;;
66886;SDS011;67239;51.680;5.976;2023-11-21T08:37:39;39.08;;;23.90;;
66886;SDS011;67239;51.680;5.976;2023-11-21T08:40:06;41.88;;;23.02;;
66886;SDS011;67239;51.680;5.976;2023-11-21T08:42:39;36.63;;;24.95;;
66886;SDS011;67239;51.680;5.976;2023-11-21T08:45:06;38.90;;;23.50;;
66886;SDS011;67239;51.680;5.976;2023-11-21T08:47:35;36.17;;;22.23;;
66886;SDS011;67239;51.680;5.976;2023-11-21T08:50:03;38.20;;;23.63;;
66886;SDS011;67239;51.680;5.976;2023-11-21T08:52:33;34.72;;;20.83;;
66886;SDS011;67239;51.680;5.976;2023-11-21T08:55:01;39.83;;;22.42;;
66886;SDS011;67239;51.680;5.976;2023-11-21T08:57:44;30.60;;;21.27;;
66886;SDS011;67239;51.680;5.976;2023-11-21T09:00:13;28.73;;;19.52;;
66886;SDS011;67239;51.680;5.976;2023-11-21T09:02:43;30.80;;;22.10;;
66886;SDS011;67239;51.680;5.976;2023-11-21T09:05:12;32.95;;;22.75;;
66886;SDS011;67239;51.680;5.976;2023-11-21T09:07:41;35.40;;;25.52;;
66886;SDS011;67239;51.680;5.976;2023-11-21T09:10:09;29.13;;;19.77;;
66886;SDS011;67239;51.680;5.976;2023-11-21T09:12:37;26.92;;;19.10;;
66886;SDS011;67239;51.680;5.976;2023-11-21T09:15:05;23.92;;;18.02;;
66886;SDS011;67239;51.680;5.976;2023-11-21T09:17:34;26.42;;;18.10;;
66886;SDS011;67239;51.680;5.976;2023-11-21T09:20:02;24.02;;;18.75;;
66886;SDS011;67239;51.680;5.976;2023-11-21T09:22:32;22.90;;;16.55;;
66886;SDS011;67239;51.680;5.976;2023-11-21T09:25:00;34.95;;;25.13;;
66886;SDS011;67239;51.680;5.976;2023-11-21T09:27:27;50.45;;;35.92;;
66886;SDS011;67239;51.680;5.976;2023-11-21T09:29:54;25.77;;;19.80;;
66886;SDS011;67239;51.680;5.976;2023-11-21T09:32:22;24.20;;;19.08;;
66886;SDS011;67239;51.680;5.976;2023-11-21T09:34:49;21.10;;;17.10;;
66886;SDS011;67239;51.680;5.976;2023-11-21T09:37:17;20.70;;;17.52;;
66886;SDS011;67239;51.680;5.976;2023-11-21T09:39:45;19.88;;;16.30;;
66886;SDS011;67239;51.680;5.976;2023-11-21T09:42:20;29.75;;;25.48;;
66886;SDS011;67239;51.680;5.976;2023-11-21T09:45:05;20.33;;;16.17;;
66886;SDS011;67239;51.680;5.976;2023-11-21T09:47:44;28.60;;;19.80;;
66886;SDS011;67239;51.680;5.976;2023-11-21T09:50:14;21.52;;;17.50;;
66886;SDS011;67239;51.680;5.976;2023-11-21T09:55:37;26.63;;;18.05;;
66886;SDS011;67239;51.680;5.976;2023-11-21T09:58:08;28.58;;;19.40;;
66886;SDS011;67239;51.680;5.976;2023-11-21T10:00:42;27.17;;;19.65;;
66886;SDS011;67239;51.680;5.976;2023-11-21T10:03:14;29.42;;;18.38;;
66886;SDS011;67239;51.680;5.976;2023-11-21T10:05:43;24.85;;;17.05;;
66886;SDS011;67239;51.680;5.976;2023-11-21T10:08:13;23.50;;;16.33;;
66886;SDS011;67239;51.680;5.976;2023-11-21T10:10:45;21.05;;;15.98;;
66886;SDS011;67239;51.680;5.976;2023-11-21T10:13:15;25.35;;;18.10;;
66886;SDS011;67239;51.680;5.976;2023-11-21T10:15:48;26.52;;;17.80;;
66886;SDS011;67239;51.680;5.976;2023-11-21T10:18:18;24.83;;;17.58;;
66886;SDS011;67239;51.680;5.976;2023-11-21T10:20:46;26.60;;;16.58;;
66886;SDS011;67239;51.680;5.976;2023-11-21T10:23:20;27.60;;;18.38;;
66886;SDS011;67239;51.680;5.976;2023-11-21T10:25:50;31.25;;;18.27;;
66886;SDS011;67239;51.680;5.976;2023-11-21T10:28:20;27.88;;;17.75;;
66886;SDS011;67239;51.680;5.976;2023-11-21T10:30:48;28.65;;;17.83;;
66886;SDS011;67239;51.680;5.976;2023-11-21T10:33:15;27.13;;;18.25;;
66886;SDS011;67239;51.680;5.976;2023-11-21T10:35:44;30.02;;;18.95;;
66886;SDS011;67239;51.680;5.976;2023-11-21T10:38:20;30.42;;;19.60;;
66886;SDS011;67239;51.680;5.976;2023-11-21T10:40:50;34.40;;;18.90;;
66886;SDS011;67239;51.680;5.976;2023-11-21T10:43:17;31.73;;;18.58;;
66886;SDS011;67239;51.680;5.976;2023-11-21T10:45:45;33.72;;;20.13;;
66886;SDS011;67239;51.680;5.976;2023-11-21T10:48:13;35.35;;;19.67;;
66886;SDS011;67239;51.680;5.976;2023-11-21T10:50:45;35.97;;;19.73;;
66886;SDS011;67239;51.680;5.976;2023-11-21T10:53:14;35.08;;;19.33;;
66886;SDS011;67239;51.680;5.976;2023-11-21T10:55:42;38.78;;;20.92;;
66886;SDS011;67239;51.680;5.976;2023-11-21T10:58:13;40.50;;;21.65;;
66886;SDS011;67239;51.680;5.976;2023-11-21T11:00:41;41.85;;;20.83;;
66886;SDS011;67239;51.680;5.976;2023-11-21T11:03:12;45.92;;;20.00;;
66886;SDS011;67239;51.680;5.976;2023-11-21T11:05:43;39.95;;;20.23;;
66886;SDS011;67239;51.680;5.976;2023-11-21T11:08:20;35.95;;;19.90;;
66886;SDS011;67239;51.680;5.976;2023-11-21T11:10:54;38.80;;;21.23;;
66886;SDS011;67239;51.680;5.976;2023-11-21T11:13:22;37.45;;;21.17;;
66886;SDS011;67239;51.680;5.976;2023-11-21T11:15:51;40.45;;;22.13;;
66886;SDS011;67239;51.680;5.976;2023-11-21T11:18:29;36.05;;;21.50;;
66886;SDS011;67239;51.680;5.976;2023-11-21T11:24:17;38.72;;;20.10;;
66886;SDS011;67239;51.680;5.976;2023-11-21T11:27:24;37.00;;;21.35;;
66886;SDS011;67239;51.680;5.976;2023-11-21T11:33:53;37.35;;;19.40;;
66886;SDS011;67239;51.680;5.976;2023-11-21T11:36:38;35.85;;;21.00;;
66886;SDS011;67239;51.680;5.976;2023-11-21T11:42:03;32.97;;;19.08;;
66886;SDS011;67239;51.680;5.976;2023-11-21T11:50:06;37.05;;;20.80;;
66886;SDS011;67239;51.680;5.976;2023-11-21T11:55:16;35.53;;;19.65;;
66886;SDS011;67239;51.680;5.976;2023-11-21T11:57:45;31.73;;;18.65;;
66886;SDS011;67239;51.680;5.976;2023-11-21T12:02:53;45.25;;;21.50;;
66886;SDS011;67239;51.680;5.976;2023-11-21T12:05:26;40.00;;;20.40;;
66886;SDS011;67239;51.680;5.976;2023-11-21T12:08:00;45.80;;;22.83;;
66886;SDS011;67239;51.680;5.976;2023-11-21T12:10:31;43.25;;;22.73;;
66886;SDS011;67239;51.680;5.976;2023-11-21T12:13:07;49.40;;;24.38;;
66886;SDS011;67239;51.680;5.976;2023-11-21T12:15:37;39.08;;;20.20;;
66886;SDS011;67239;51.680;5.976;2023-11-21T12:18:06;38.67;;;20.17;;
66886;SDS011;67239;51.680;5.976;2023-11-21T12:20:34;38.88;;;19.90;;
66886;SDS011;67239;51.680;5.976;2023-11-21T12:23:06;39.22;;;20.60;;
66886;SDS011;67239;51.680;5.976;2023-11-21T12:25:36;43.05;;;22.35;;
66886;SDS011;67239;51.680;5.976;2023-11-21T12:28:04;42.35;;;21.98;;
66886;SDS011;67239;51.680;5.976;2023-11-21T12:30:35;47.67;;;22.45;;
66886;SDS011;67239;51.680;5.976;2023-11-21T12:33:04;44.50;;;21.90;;
66886;SDS011;67239;51.680;5.976;2023-11-21T12:35:36;40.95;;;21.63;;
66886;SDS011;67239;51.680;5.976;2023-11-21T12:38:04;44.75;;;23.23;;
66886;SDS011;67239;51.680;5.976;2023-11-21T12:40:32;39.05;;;20.73;;
66886;SDS011;67239;51.680;5.976;2023-11-21T12:43:00;37.95;;;21.30;;
66886;SDS011;67239;51.680;5.976;2023-11-21T12:45:31;37.22;;;20.20;;
66886;SDS011;67239;51.680;5.976;2023-11-21T12:48:00;37.55;;;20.33;;
66886;SDS011;67239;51.680;5.976;2023-11-21T12:50:34;35.33;;;19.52;;
66886;SDS011;67239;51.680;5.976;2023-11-21T12:53:10;32.30;;;18.45;;
66886;SDS011;67239;51.680;5.976;2023-11-21T12:55:39;29.83;;;18.15;;
66886;SDS011;67239;51.680;5.976;2023-11-21T12:58:09;32.70;;;18.17;;
66886;SDS011;67239;51.680;5.976;2023-11-21T13:03:11;30.38;;;17.63;;
66886;SDS011;67239;51.680;5.976;2023-11-21T13:05:45;29.17;;;17.10;;
66886;SDS011;67239;51.680;5.976;2023-11-21T13:08:19;31.95;;;18.65;;
66886;SDS011;67239;51.680;5.976;2023-11-21T13:10:53;34.50;;;19.92;;
66886;SDS011;67239;51.680;5.976;2023-11-21T13:13:25;24.70;;;14.68;;
66886;SDS011;67239;51.680;5.976;2023-11-21T13:16:04;22.55;;;13.15;;
66886;SDS011;67239;51.680;5.976;2023-11-21T13:18:32;20.80;;;13.15;;
66886;SDS011;67239;51.680;5.976;2023-11-21T13:21:04;20.73;;;12.65;;
66886;SDS011;67239;51.680;5.976;2023-11-21T13:23:42;19.98;;;12.55;;
66886;SDS011;67239;51.680;5.976;2023-11-21T13:26:12;20.83;;;13.63;;
66886;SDS011;67239;51.680;5.976;2023-11-21T13:28:41;20.88;;;13.00;;
66886;SDS011;67239;51.680;5.976;2023-11-21T13:31:13;18.55;;;12.18;;
66886;SDS011;67239;51.680;5.976;2023-11-21T13:33:53;20.63;;;12.75;;
66886;SDS011;67239;51.680;5.976;2023-11-21T13:36:31;19.73;;;12.35;;
66886;SDS011;67239;51.680;5.976;2023-11-21T13:39:02;22.33;;;14.02;;
66886;SDS011;67239;51.680;5.976;2023-11-21T13:41:35;21.25;;;13.93;;
66886;SDS011;67239;51.680;5.976;2023-11-21T13:44:05;25.02;;;15.25;;
66886;SDS011;67239;51.680;5.976;2023-11-21T13:46:54;20.95;;;13.60;;
66886;SDS011;67239;51.680;5.976;2023-11-21T13:49:24;19.85;;;12.98;;
66886;SDS011;67239;51.680;5.976;2023-11-21T13:51:53;21.85;;;12.48;;
66886;SDS011;67239;51.680;5.976;2023-11-21T13:54:22;20.13;;;11.80;;
66886;SDS011;67239;51.680;5.976;2023-11-21T13:56:51;18.58;;;11.40;;
66886;SDS011;67239;51.680;5.976;2023-11-21T13:59:18;19.42;;;12.80;;
66886;SDS011;67239;51.680;5.976;2023-11-21T14:01:52;21.23;;;13.47;;
66886;SDS011;67239;51.680;5.976;2023-11-21T14:04:25;22.73;;;14.98;;
66886;SDS011;67239;51.680;5.976;2023-11-21T14:06:59;22.15;;;14.45;;
66886;SDS011;67239;51.680;5.976;2023-11-21T14:09:37;24.17;;;14.57;;
66886;SDS011;67239;51.680;5.976;2023-11-21T14:12:11;22.10;;;14.25;;
66886;SDS011;67239;51.680;5.976;2023-11-21T14:14:40;21.92;;;14.30;;
66886;SDS011;67239;51.680;5.976;2023-11-21T14:17:07;24.30;;;14.25;;
66886;SDS011;67239;51.680;5.976;2023-11-21T14:19:34;24.23;;;14.43;;
66886;SDS011;67239;51.680;5.976;2023-11-21T14:22:05;25.92;;;15.27;;
66886;SDS011;67239;51.680;5.976;2023-11-21T14:24:36;24.38;;;16.02;;
66886;SDS011;67239;51.680;5.976;2023-11-21T14:27:04;24.30;;;15.00;;
66886;SDS011;67239;51.680;5.976;2023-11-21T14:29:32;26.65;;;16.02;;
66886;SDS011;67239;51.680;5.976;2023-11-21T14:32:05;25.40;;;15.63;;
66886;SDS011;67239;51.680;5.976;2023-11-21T14:34:34;26.92;;;15.45;;
66886;SDS011;67239;51.680;5.976;2023-11-21T14:37:02;27.92;;;15.43;;
66886;SDS011;67239;51.680;5.976;2023-11-21T14:39:32;21.23;;;13.18;;
66886;SDS011;67239;51.680;5.976;2023-11-21T14:42:04;21.27;;;14.45;;
66886;SDS011;67239;51.680;5.976;2023-11-21T14:44:34;25.48;;;14.48;;
66886;SDS011;67239;51.680;5.976;2023-11-21T14:47:05;21.00;;;13.45;;
66886;SDS011;67239;51.680;5.976;2023-11-21T14:49:40;20.95;;;13.75;;
66886;SDS011;67239;51.680;5.976;2023-11-21T14:52:20;26.77;;;14.35;;
66886;SDS011;67239;51.680;5.976;2023-11-21T14:55:01;23.27;;;14.32;;
66886;SDS011;67239;51.680;5.976;2023-11-21T14:57:51;24.38;;;14.57;;
66886;SDS011;67239;51.680;5.976;2023-11-21T15:00:19;23.55;;;13.98;;